< Typhoon 198123 1981 Season Typhoon 198125 >
Typhoon 198124 (GAY)
General InformationTrack Information on Google MapsDetailed Wind InformationList of All Images || NewsDisaster Info.ResourceGoogle EarthGE AnimationAtom FeedGeoJSON
Detalied Best Track (Time Zone = UTC)
Year Month Day Hour Lat. Long. Pressure (hPa) Wind (kt) Class Image Chart
1981 10 14 00 10.0 150.0 1002 0 2 Image Chart
1981 10 14 06 11.3 149.4 1000 0 2 Image Chart
1981 10 14 12 12.5 148.8 1000 0 2 Image Chart
1981 10 14 18 14.0 148.0 998 0 2 Image Chart
1981 10 15 00 15.0 147.2 998 0 2 Image Chart
1981 10 15 06 16.0 146.5 998 0 2 Image Chart
1981 10 15 12 16.7 145.5 998 0 2 Image Chart
1981 10 15 18 17.2 144.1 996 40 3 Image Chart
1981 10 16 00 17.3 142.4 992 40 3 Image Chart
1981 10 16 06 17.3 141.5 990 45 3 Image Chart
1981 10 16 12 17.3 140.7 980 50 4 Image Chart
1981 10 16 18 17.5 140.1 980 55 4 Image Chart
1981 10 17 00 17.1 139.6 975 60 4 Image Chart
1981 10 17 06 16.7 139.4 970 60 4 Image Chart
1981 10 17 12 17.1 138.7 970 60 4 Image Chart
1981 10 17 18 18.1 137.6 965 65 5 Image Chart
1981 10 18 00 18.1 136.7 960 75 5 Image Chart
1981 10 18 06 18.2 136.0 950 75 5 Image Chart
1981 10 18 12 18.6 135.0 950 85 5 Image Chart
1981 10 18 18 19.1 133.9 955 85 5 Image Chart
1981 10 19 00 19.6 132.8 960 80 5 Image Chart
1981 10 19 06 19.9 131.6 960 80 5 Image Chart
1981 10 19 12 20.2 130.6 955 80 5 Image Chart
1981 10 19 18 20.8 129.7 950 80 5 Image Chart
1981 10 20 00 21.4 128.6 950 80 5 Image Chart
1981 10 20 06 22.0 128.3 950 80 5 Image Chart
1981 10 20 12 22.7 128.2 950 80 5 Image Chart
1981 10 20 18 23.5 128.3 950 80 5 Image Chart
1981 10 21 00 24.6 128.9 950 80 5 Image Chart
1981 10 21 06 25.7 129.6 950 80 5 Image Chart
1981 10 21 12 26.7 130.4 955 75 5 Image Chart
1981 10 21 18 27.5 131.8 960 70 5 Image Chart
1981 10 22 00 29.1 133.5 965 65 5 Image Chart
1981 10 22 06 31.0 135.4 965 65 5 Image Chart
1981 10 22 12 33.2 138.8 965 65 5 Image Chart
1981 10 22 18 36.1 142.3 965 65 5 Image Chart
1981 10 23 00 39.2 147.5 965 65 5 Image Chart
1981 10 23 06 43.0 152.0 972 0 6 Image Chart
1981 10 23 12 49.0 155.0 972 0 6 Image Chart
1981 10 23 18 55.0 154.0 972 0 6 Image Chart
Japan Meteorological Agency Best Track Data | Correction Date : 1992-10-21
< Typhoon 198123 1981 Season Typhoon 198125 >

Help